createdAt,value
2023-05-14T00:00:39.845Z,81.11
2023-05-14T00:03:07.010Z,82.45
2023-05-14T00:05:33.652Z,82.18
2023-05-14T00:08:00.214Z,82.78
2023-05-14T00:10:27.414Z,82.41
2023-05-14T00:12:53.980Z,82.24
2023-05-14T00:15:20.594Z,83.03
2023-05-14T00:17:47.204Z,82.71
2023-05-14T00:20:13.915Z,82.40
2023-05-14T00:22:40.868Z,82.74
2023-05-14T00:25:08.391Z,83.06
2023-05-14T00:27:36.064Z,83.26
2023-05-14T00:30:02.744Z,83.74
2023-05-14T00:32:29.254Z,83.40
2023-05-14T00:34:55.758Z,82.60
2023-05-14T00:37:22.521Z,82.83
2023-05-14T00:39:49.073Z,83.05
2023-05-14T00:42:15.614Z,83.29
2023-05-14T00:44:42.159Z,83.66
2023-05-14T00:47:08.784Z,82.60
2023-05-14T00:49:35.779Z,83.95
2023-05-14T00:52:02.666Z,83.34
2023-05-14T00:54:29.255Z,83.67
2023-05-14T00:56:56.093Z,83.51
2023-05-14T00:59:22.650Z,83.58
2023-05-14T01:01:49.254Z,83.48
2023-05-14T01:04:15.956Z,83.16
2023-05-14T01:07:09.830Z,83.06
2023-05-14T01:10:04.054Z,83.56
2023-05-14T01:12:37.403Z,83.11
2023-05-14T01:15:22.145Z,83.59
2023-05-14T01:17:53.772Z,83.78
2023-05-14T01:20:20.472Z,84.16
2023-05-14T01:22:47.764Z,83.43
2023-05-14T01:25:14.320Z,83.75
2023-05-14T01:27:43.907Z,83.60
2023-05-14T01:30:18.820Z,83.72
2023-05-14T01:32:48.731Z,84.03
2023-05-14T01:35:15.897Z,83.79
2023-05-14T01:37:43.863Z,83.98
2023-05-14T01:40:12.054Z,84.02
2023-05-14T01:42:38.567Z,84.59
2023-05-14T01:45:05.846Z,84.45
2023-05-14T01:47:32.415Z,83.58
2023-05-14T01:49:58.937Z,83.62
2023-05-14T01:52:25.438Z,83.66
2023-05-14T01:54:52.452Z,83.77
2023-05-14T01:57:19.168Z,84.35
2023-05-14T01:59:45.979Z,84.34
2023-05-14T02:02:12.529Z,84.50
2023-05-14T02:04:39.433Z,84.36
2023-05-14T02:07:05.966Z,83.88
2023-05-14T02:09:32.513Z,84.85
2023-05-14T02:11:59.056Z,84.09
2023-05-14T02:14:25.663Z,84.66
2023-05-14T02:16:52.156Z,84.56
2023-05-14T02:19:18.852Z,83.78
2023-05-14T02:21:45.802Z,83.97
2023-05-14T02:24:12.811Z,83.88
2023-05-14T02:26:39.330Z,83.80
2023-05-14T02:29:05.979Z,83.34
2023-05-14T02:31:32.561Z,82.75
2023-05-14T02:33:59.056Z,82.89
2023-05-14T02:36:25.915Z,83.20
2023-05-14T02:38:52.384Z,82.86
2023-05-14T02:41:19.014Z,82.15
2023-05-14T02:43:46.264Z,83.02
2023-05-14T02:46:13.811Z,83.00
2023-05-14T02:48:40.850Z,83.28
2023-05-14T02:51:07.808Z,83.18
2023-05-14T02:53:34.274Z,83.02
2023-05-14T02:56:00.827Z,83.21
2023-05-14T02:58:28.642Z,82.91
2023-05-14T03:00:55.550Z,82.94
2023-05-14T03:03:22.547Z,83.10
2023-05-14T03:05:49.615Z,83.10
2023-05-14T03:08:16.127Z,82.71
2023-05-14T03:10:42.681Z,82.12
2023-05-14T03:13:09.222Z,83.55
2023-05-14T03:15:35.710Z,83.35
2023-05-14T03:18:02.280Z,82.93
2023-05-14T03:20:28.863Z,82.62
2023-05-14T03:22:56.129Z,83.17
2023-05-14T03:25:22.801Z,83.28
2023-05-14T03:27:49.304Z,81.73
2023-05-14T03:30:15.974Z,83.19
2023-05-14T03:32:42.996Z,82.82
2023-05-14T03:35:09.623Z,82.26
2023-05-14T03:37:36.331Z,82.53
2023-05-14T03:40:02.901Z,82.21
2023-05-14T03:42:29.566Z,82.11
2023-05-14T03:44:56.046Z,81.71
2023-05-14T03:47:22.582Z,81.51
2023-05-14T03:49:49.194Z,82.80
2023-05-14T03:52:16.170Z,81.87
2023-05-14T03:54:44.124Z,82.20
2023-05-14T03:57:10.599Z,82.04
2023-05-14T03:59:37.066Z,83.10
2023-05-14T04:02:03.673Z,82.03
2023-05-14T04:04:30.317Z,82.00
2023-05-14T04:06:56.824Z,82.23
2023-05-14T04:09:23.437Z,82.41
2023-05-14T04:11:51.003Z,82.63
2023-05-14T04:14:17.582Z,81.65
2023-05-14T04:16:44.962Z,82.46
2023-05-14T04:19:11.711Z,82.48
2023-05-14T04:21:38.315Z,82.18
2023-05-14T04:24:05.074Z,81.56
2023-05-14T04:26:31.567Z,82.09
2023-05-14T04:29:01.213Z,82.31
2023-05-14T04:31:27.724Z,82.50
2023-05-14T04:33:54.728Z,82.94
2023-05-14T04:36:21.206Z,82.69
2023-05-14T04:38:47.684Z,83.18
2023-05-14T04:41:14.175Z,82.89
2023-05-14T04:43:40.650Z,82.66
2023-05-14T04:46:07.180Z,82.27
2023-05-14T04:48:33.728Z,82.74
2023-05-14T04:51:00.331Z,81.82
2023-05-14T04:53:26.979Z,82.15
2023-05-14T04:55:54.185Z,82.37
2023-05-14T04:58:20.677Z,82.37
2023-05-14T05:00:47.163Z,82.27
2023-05-14T05:03:13.712Z,82.13
2023-05-14T05:05:40.353Z,82.63
2023-05-14T05:08:06.963Z,82.42
2023-05-14T05:10:33.462Z,82.15
2023-05-14T05:13:00.553Z,82.38
2023-05-14T05:15:27.230Z,82.21
2023-05-14T05:17:53.908Z,82.27
2023-05-14T05:20:20.621Z,82.25
2023-05-14T05:22:47.198Z,82.12
2023-05-14T05:25:13.650Z,82.37
2023-05-14T05:27:40.169Z,82.44
2023-05-14T05:30:07.368Z,82.53
2023-05-14T05:32:34.379Z,81.46
2023-05-14T05:35:01.343Z,82.25
2023-05-14T05:37:27.855Z,82.17
2023-05-14T05:39:54.407Z,82.33
2023-05-14T05:42:20.889Z,82.00
2023-05-14T05:44:47.350Z,81.88
2023-05-14T05:47:13.787Z,82.00
2023-05-14T05:49:40.273Z,82.03
2023-05-14T05:52:06.932Z,81.55
2023-05-14T05:54:33.478Z,81.37
2023-05-14T05:57:00.685Z,81.41
2023-05-14T05:59:27.182Z,81.02
2023-05-14T06:01:53.777Z,81.19
2023-05-14T06:04:20.276Z,82.20
2023-05-14T06:06:46.959Z,81.65
2023-05-14T06:09:13.498Z,81.92
2023-05-14T06:11:39.960Z,82.21
2023-05-14T06:14:06.677Z,82.28
2023-05-14T06:16:33.333Z,82.41
2023-05-14T06:18:59.817Z,82.14
2023-05-14T06:21:26.304Z,81.69
2023-05-14T06:23:52.788Z,81.39
2023-05-14T06:26:19.301Z,81.66
2023-05-14T06:28:45.805Z,82.02
2023-05-14T06:31:12.459Z,82.37
2023-05-14T06:33:39.140Z,82.07
2023-05-14T06:36:06.759Z,81.65
2023-05-14T06:38:33.469Z,81.55
2023-05-14T06:41:00.001Z,81.03
2023-05-14T06:43:26.555Z,80.42
2023-05-14T06:45:53.050Z,79.85
2023-05-14T06:48:19.960Z,79.52
2023-05-14T06:50:47.540Z,79.34
2023-05-14T06:53:14.351Z,79.30
2023-05-14T06:55:40.917Z,78.85
2023-05-14T06:58:07.901Z,79.38
2023-05-14T07:00:34.646Z,79.69
2023-05-14T07:03:01.176Z,80.14
2023-05-14T07:05:27.711Z,79.93
2023-05-14T07:07:54.187Z,79.29
2023-05-14T07:10:20.818Z,79.85
2023-05-14T07:12:47.795Z,79.06
2023-05-14T07:15:14.278Z,78.89
2023-05-14T07:17:40.990Z,79.92
2023-05-14T07:20:08.123Z,79.60
2023-05-14T07:22:34.588Z,79.40
2023-05-14T07:25:01.291Z,81.06
2023-05-14T07:27:27.813Z,80.28
2023-05-14T07:29:54.300Z,80.06
2023-05-14T07:32:20.819Z,79.46
2023-05-14T07:34:47.530Z,78.14
2023-05-14T07:37:14.022Z,78.22
2023-05-14T07:39:41.648Z,77.55
2023-05-14T07:42:08.258Z,76.31
2023-05-14T07:44:34.815Z,76.12
2023-05-14T07:47:01.323Z,75.51
2023-05-14T07:49:27.803Z,76.16
2023-05-14T07:51:54.262Z,76.33
2023-05-14T07:54:20.826Z,75.90
2023-05-14T07:56:47.303Z,75.33
2023-05-14T07:59:14.020Z,74.41
2023-05-14T08:01:40.613Z,74.91
2023-05-14T08:04:07.257Z,75.12
2023-05-14T08:06:34.048Z,75.67
2023-05-14T08:09:00.652Z,74.68
2023-05-14T08:11:27.154Z,74.97
2023-05-14T08:13:53.648Z,75.59
2023-05-14T08:16:20.584Z,76.06
2023-05-14T08:18:47.161Z,75.94
2023-05-14T08:21:13.647Z,75.28
2023-05-14T08:23:40.349Z,74.09
2023-05-14T08:26:07.190Z,75.44
2023-05-14T08:28:33.759Z,74.74
2023-05-14T08:31:00.280Z,75.50
2023-05-14T08:33:26.798Z,73.98
2023-05-14T08:35:53.379Z,73.35
2023-05-14T08:38:19.872Z,72.35
2023-05-14T08:40:53.980Z,70.87
2023-05-14T08:43:24.573Z,71.62
2023-05-14T08:45:54.347Z,70.27
2023-05-14T08:48:23.027Z,72.62
2023-05-14T08:50:49.666Z,71.77
2023-05-14T08:53:16.188Z,72.90
2023-05-14T08:55:43.044Z,73.53
2023-05-14T08:58:09.630Z,72.74
2023-05-14T09:00:36.125Z,73.03
2023-05-14T09:03:04.155Z,73.28
2023-05-14T09:05:30.805Z,72.59
2023-05-14T09:07:57.305Z,71.75
2023-05-14T09:10:24.084Z,73.07
2023-05-14T09:12:51.636Z,70.16
2023-05-14T09:15:18.399Z,71.25
2023-05-14T09:17:46.457Z,71.08
2023-05-14T09:20:13.087Z,72.87
2023-05-14T09:22:39.936Z,72.74
2023-05-14T09:25:09.432Z,73.00
2023-05-14T09:27:36.424Z,68.58
2023-05-14T09:30:11.082Z,66.91
2023-05-14T09:32:44.035Z,66.92
2023-05-14T09:35:17.051Z,66.32
2023-05-14T09:37:48.909Z,66.63
2023-05-14T09:40:16.356Z,68.23
2023-05-14T09:42:43.062Z,70.34
2023-05-14T09:45:10.144Z,70.27
2023-05-14T09:47:38.103Z,71.59
2023-05-14T09:50:05.660Z,71.19
2023-05-14T09:52:32.864Z,69.15
2023-05-14T09:55:00.298Z,69.25
2023-05-14T09:57:27.294Z,69.17
2023-05-14T09:59:54.124Z,70.82
2023-05-14T10:02:36.670Z,70.14
2023-05-14T10:05:04.824Z,69.12
2023-05-14T10:07:38.890Z,69.85
2023-05-14T10:10:06.891Z,65.40
2023-05-14T10:12:34.741Z,68.31
2023-05-14T10:15:03.597Z,65.31
2023-05-14T10:17:32.488Z,64.36
2023-05-14T10:19:59.988Z,65.56
2023-05-14T10:22:31.896Z,65.57
2023-05-14T10:24:58.556Z,67.10
2023-05-14T10:27:25.657Z,67.66
2023-05-14T10:29:56.732Z,67.22
2023-05-14T10:32:25.592Z,67.08
2023-05-14T10:34:53.510Z,67.88
2023-05-14T10:37:26.484Z,65.79
2023-05-14T10:39:54.443Z,67.70
2023-05-14T10:42:27.179Z,66.53
2023-05-14T10:44:57.970Z,65.87
2023-05-14T10:47:35.646Z,64.33
2023-05-14T10:50:04.720Z,67.33
2023-05-14T10:52:31.328Z,64.59
2023-05-14T10:55:03.600Z,63.56
2023-05-14T10:57:31.999Z,64.33
2023-05-14T10:59:59.440Z,65.02
2023-05-14T11:02:26.977Z,64.57
2023-05-14T11:04:59.217Z,63.91
2023-05-14T11:07:33.905Z,67.13
2023-05-14T11:10:02.760Z,64.11
2023-05-14T11:12:29.313Z,65.43
2023-05-14T11:14:59.552Z,67.82
2023-05-14T11:17:30.721Z,67.49
2023-05-14T11:19:57.779Z,67.38
2023-05-14T11:22:24.668Z,64.94
2023-05-14T11:24:51.443Z,66.20
2023-05-14T11:27:18.984Z,65.36
2023-05-14T11:29:48.631Z,64.11
2023-05-14T11:32:15.968Z,65.37
2023-05-14T11:34:42.915Z,63.89
2023-05-14T11:37:10.192Z,59.64
2023-05-14T11:39:39.998Z,60.97
2023-05-14T11:42:11.785Z,65.85
2023-05-14T11:44:38.613Z,67.05
2023-05-14T11:47:05.234Z,67.54
2023-05-14T11:49:37.303Z,72.46
2023-05-14T11:52:07.036Z,69.51
2023-05-14T11:54:33.754Z,70.02
2023-05-14T11:57:01.802Z,68.98
2023-05-14T11:59:28.802Z,65.13
2023-05-14T12:01:55.272Z,65.28
2023-05-14T12:04:24.655Z,68.95
2023-05-14T12:06:51.632Z,64.08
2023-05-14T12:09:19.901Z,63.36
2023-05-14T12:11:46.846Z,62.63
2023-05-14T12:14:20.615Z,64.21
2023-05-14T12:16:47.887Z,62.07
2023-05-14T12:19:15.470Z,58.00
2023-05-14T12:21:45.485Z,59.00
2023-05-14T12:24:13.244Z,60.34
2023-05-14T12:26:41.017Z,61.86
2023-05-14T12:29:07.682Z,58.89
2023-05-14T12:31:36.419Z,60.27
2023-05-14T12:34:03.957Z,62.43
2023-05-14T12:36:32.434Z,62.54
2023-05-14T12:39:03.992Z,63.44
2023-05-14T12:41:31.166Z,62.19
2023-05-14T12:43:58.257Z,63.93
2023-05-14T12:46:26.073Z,65.57
2023-05-14T12:48:53.616Z,65.08
2023-05-14T12:51:20.294Z,59.09
2023-05-14T12:53:46.795Z,58.10
2023-05-14T12:56:13.378Z,58.15
2023-05-14T12:58:40.185Z,59.71
2023-05-14T13:01:06.858Z,60.00
2023-05-14T13:03:33.515Z,60.05
2023-05-14T13:06:00.171Z,57.14
2023-05-14T13:08:26.729Z,58.94
2023-05-14T13:10:54.028Z,58.47
2023-05-14T13:13:20.637Z,58.68
2023-05-14T13:15:47.238Z,59.60
2023-05-14T13:18:14.348Z,60.73
2023-05-14T13:20:43.092Z,59.76
2023-05-14T13:23:09.860Z,60.73
2023-05-14T13:25:36.417Z,59.92
2023-05-14T13:28:02.990Z,59.72
2023-05-14T13:30:29.843Z,59.86
2023-05-14T13:32:56.336Z,61.63
2023-05-14T13:35:23.057Z,63.91
2023-05-14T13:37:49.892Z,61.90
2023-05-14T13:40:17.260Z,62.62
2023-05-14T13:42:44.006Z,62.33
2023-05-14T13:45:11.733Z,57.99
2023-05-14T13:47:40.127Z,60.09
2023-05-14T13:50:07.300Z,59.76
2023-05-14T13:52:34.324Z,59.70
2023-05-14T13:55:00.883Z,60.82
2023-05-14T13:57:27.320Z,61.05
2023-05-14T13:59:53.824Z,57.39
2023-05-14T14:02:20.357Z,56.81
2023-05-14T14:04:46.903Z,56.06
2023-05-14T14:07:13.406Z,59.87
2023-05-14T14:09:39.863Z,53.99
2023-05-14T14:12:06.754Z,57.42
2023-05-14T14:14:33.386Z,58.53
2023-05-14T14:17:00.087Z,56.93
2023-05-14T14:19:26.620Z,55.29
2023-05-14T14:21:53.374Z,54.92
2023-05-14T14:24:20.221Z,57.53
2023-05-14T14:26:46.760Z,56.08
2023-05-14T14:29:13.242Z,55.48
2023-05-14T14:31:39.823Z,56.02
2023-05-14T14:34:06.379Z,57.62
2023-05-14T14:36:32.949Z,59.85
2023-05-14T14:38:59.495Z,58.25
2023-05-14T14:41:26.628Z,60.92
2023-05-14T14:43:53.189Z,56.25
2023-05-14T14:46:20.047Z,59.11
2023-05-14T14:48:46.592Z,55.36
2023-05-14T14:51:13.106Z,57.56
2023-05-14T14:53:40.444Z,58.79
2023-05-14T14:56:07.099Z,58.68
2023-05-14T14:58:33.638Z,58.94
2023-05-14T15:01:01.103Z,61.00
2023-05-14T15:03:27.689Z,59.23
2023-05-14T15:05:54.179Z,57.77
2023-05-14T15:08:22.630Z,57.19
2023-05-14T15:10:49.104Z,59.08
2023-05-14T15:13:15.674Z,59.62
2023-05-14T15:15:42.108Z,60.72
2023-05-14T15:18:10.196Z,58.88
2023-05-14T15:20:37.105Z,60.40
2023-05-14T15:23:03.504Z,58.86
2023-05-14T15:25:29.923Z,59.81
2023-05-14T15:27:56.318Z,54.88
2023-05-14T15:30:22.800Z,57.41
2023-05-14T15:32:49.214Z,55.89
2023-05-14T15:35:15.828Z,59.09
2023-05-14T15:37:45.378Z,56.73
2023-05-14T15:40:12.013Z,58.86
2023-05-14T15:42:41.860Z,54.23
2023-05-14T15:45:10.084Z,56.64
2023-05-14T15:47:36.597Z,56.51
2023-05-14T15:50:03.811Z,57.42
2023-05-14T15:52:30.767Z,55.81
2023-05-14T15:54:57.479Z,54.98
2023-05-14T15:57:24.077Z,56.01
2023-05-14T15:59:51.387Z,58.07
2023-05-14T16:02:18.224Z,57.46
2023-05-14T16:04:49.426Z,57.36
2023-05-14T16:07:16.008Z,56.61
2023-05-14T16:09:42.539Z,56.62
2023-05-14T16:12:09.077Z,58.57
2023-05-14T16:14:35.588Z,58.66
2023-05-14T16:17:02.069Z,55.37
2023-05-14T16:19:28.606Z,55.02
2023-05-14T16:21:55.040Z,58.54
2023-05-14T16:24:21.468Z,57.40
2023-05-14T16:26:47.851Z,56.39
2023-05-14T16:29:14.299Z,55.00
2023-05-14T16:31:40.808Z,58.28
2023-05-14T16:34:07.259Z,58.27
2023-05-14T16:36:33.680Z,57.30
2023-05-14T16:39:07.214Z,58.56
2023-05-14T16:41:34.863Z,56.94
2023-05-14T16:44:01.259Z,57.59
2023-05-14T16:46:29.218Z,55.39
2023-05-14T16:51:22.273Z,57.59
2023-05-14T16:53:48.661Z,60.41
2023-05-14T16:56:15.076Z,59.16
2023-05-14T16:58:41.504Z,58.89
2023-05-14T17:01:09.766Z,58.24
2023-05-14T17:03:36.792Z,54.88
2023-05-14T17:06:03.545Z,54.23
2023-05-14T17:08:33.370Z,54.73
2023-05-14T17:10:59.922Z,54.31
2023-05-14T17:13:26.499Z,54.48
2023-05-14T17:15:53.020Z,52.25
2023-05-14T17:18:19.645Z,53.43
2023-05-14T17:20:46.307Z,53.43
2023-05-14T17:23:13.486Z,54.50
2023-05-14T17:25:39.957Z,54.64
2023-05-14T17:28:06.602Z,53.45
2023-05-14T17:30:33.106Z,53.92
2023-05-14T17:32:59.864Z,54.41
2023-05-14T17:35:26.549Z,57.33
2023-05-14T17:37:53.102Z,55.31
2023-05-14T17:40:19.844Z,55.50
2023-05-14T17:42:46.766Z,57.56
2023-05-14T17:45:14.447Z,56.65
2023-05-14T17:47:41.051Z,55.90
2023-05-14T17:50:08.103Z,56.46
2023-05-14T17:52:34.624Z,55.60
2023-05-14T17:55:01.134Z,56.29
2023-05-14T18:00:24.682Z,58.01
2023-05-14T18:02:51.195Z,60.83
2023-05-14T18:05:20.468Z,61.84
2023-05-14T18:07:47.192Z,62.70
2023-05-14T18:10:13.828Z,62.98
2023-05-14T18:12:40.358Z,63.19
2023-05-14T18:15:07.435Z,63.31
2023-05-14T18:17:34.034Z,64.86
2023-05-14T18:20:00.638Z,63.94
2023-05-14T18:22:27.136Z,64.69
2023-05-14T18:24:53.622Z,63.88
2023-05-14T18:27:20.116Z,65.77
2023-05-14T18:29:46.700Z,65.24
2023-05-14T18:32:13.172Z,65.78
2023-05-14T18:34:39.686Z,66.19
2023-05-14T18:37:07.328Z,66.14
2023-05-14T18:39:33.861Z,67.19
2023-05-14T18:42:00.748Z,65.86
2023-05-14T18:44:27.517Z,66.29
2023-05-14T18:46:54.987Z,66.25
2023-05-14T18:49:21.910Z,67.75
2023-05-14T18:51:48.450Z,66.54
2023-05-14T18:54:14.956Z,66.81
2023-05-14T18:56:46.060Z,67.97
2023-05-14T18:59:13.955Z,67.60
2023-05-14T19:01:40.632Z,67.30
2023-05-14T19:04:07.377Z,67.52
2023-05-14T19:06:34.069Z,67.94
2023-05-14T19:09:00.921Z,68.76
2023-05-14T19:11:27.406Z,68.44
2023-05-14T19:13:53.893Z,69.49
2023-05-14T19:16:21.229Z,69.21
2023-05-14T19:18:48.360Z,68.83
2023-05-14T19:21:15.321Z,70.38
2023-05-14T19:23:41.912Z,70.84
2023-05-14T19:26:08.392Z,69.82
2023-05-14T19:28:37.795Z,69.88
2023-05-14T19:31:05.338Z,67.79
2023-05-14T19:33:31.877Z,68.47
2023-05-14T19:35:58.371Z,69.09
2023-05-14T19:38:25.260Z,69.37
2023-05-14T19:40:53.444Z,70.17
2023-05-14T19:43:20.935Z,69.63
2023-05-14T19:45:47.470Z,68.80
2023-05-14T19:48:15.825Z,68.53
2023-05-14T19:50:42.299Z,69.48
2023-05-14T19:53:08.803Z,69.75
2023-05-14T19:55:35.346Z,69.11
2023-05-14T19:58:02.117Z,69.19
2023-05-14T20:00:28.640Z,69.40
2023-05-14T20:02:56.612Z,70.03
2023-05-14T20:05:23.246Z,69.46
2023-05-14T20:07:50.094Z,69.33
2023-05-14T20:10:16.597Z,69.71
2023-05-14T20:12:43.098Z,70.33
2023-05-14T20:15:09.988Z,70.43
2023-05-14T20:17:38.018Z,70.58
2023-05-14T20:20:06.778Z,69.70
2023-05-14T20:22:33.504Z,68.75
2023-05-14T20:25:00.047Z,69.10
2023-05-14T20:27:26.541Z,69.49
2023-05-14T20:29:54.071Z,69.22
2023-05-14T20:32:24.940Z,69.89
2023-05-14T20:34:51.837Z,71.04
2023-05-14T20:37:19.780Z,70.95
2023-05-14T20:39:46.677Z,70.71
2023-05-14T20:42:13.213Z,70.81
2023-05-14T20:44:39.922Z,70.98
2023-05-14T20:47:06.564Z,71.58
2023-05-14T20:49:33.340Z,71.35
2023-05-14T20:51:59.834Z,71.21
2023-05-14T20:54:26.306Z,70.52
2023-05-14T20:56:52.785Z,71.91
2023-05-14T20:59:19.771Z,72.26
2023-05-14T21:01:46.305Z,72.11
2023-05-14T21:04:13.227Z,72.22
2023-05-14T21:06:39.876Z,72.21
2023-05-14T21:09:06.346Z,70.60
2023-05-14T21:11:32.827Z,71.67
2023-05-14T21:13:59.394Z,72.19
2023-05-14T21:16:25.972Z,72.85
2023-05-14T21:18:52.497Z,72.70
2023-05-14T21:21:19.010Z,73.62
2023-05-14T21:23:45.713Z,73.99
2023-05-14T21:26:12.207Z,73.33
2023-05-14T21:28:38.658Z,74.02
2023-05-14T21:31:05.295Z,74.53
2023-05-14T21:33:31.794Z,72.87
2023-05-14T21:35:58.357Z,72.79
2023-05-14T21:38:25.215Z,72.88
2023-05-14T21:40:51.731Z,72.88
2023-05-14T21:43:18.293Z,72.08
2023-05-14T21:45:46.010Z,71.89
2023-05-14T21:48:12.821Z,71.63
2023-05-14T21:50:39.512Z,70.91
2023-05-14T21:53:06.110Z,71.79
2023-05-14T21:55:32.637Z,70.79
2023-05-14T21:57:59.362Z,70.02
2023-05-14T22:00:25.932Z,70.55
2023-05-14T22:02:53.170Z,70.61
2023-05-14T22:05:20.146Z,72.55
2023-05-14T22:07:47.061Z,71.95
2023-05-14T22:10:14.334Z,71.92
2023-05-14T22:12:41.908Z,72.71
2023-05-14T22:15:09.662Z,72.01
2023-05-14T22:17:36.514Z,73.78
2023-05-14T22:20:06.688Z,73.24
2023-05-14T22:22:34.617Z,73.23
2023-05-14T22:25:01.187Z,71.92
2023-05-14T22:27:27.755Z,72.33
2023-05-14T22:29:55.291Z,72.42
2023-05-14T22:32:22.014Z,72.79
2023-05-14T22:34:48.601Z,72.50
2023-05-14T22:37:15.633Z,72.36
2023-05-14T22:39:42.720Z,73.18
2023-05-14T22:42:09.238Z,73.39
2023-05-14T22:44:36.975Z,73.27
2023-05-14T22:47:07.275Z,73.69
2023-05-14T22:49:33.970Z,73.62
2023-05-14T22:52:00.518Z,73.79
2023-05-14T22:54:27.033Z,74.16
2023-05-14T22:56:53.585Z,73.94
2023-05-14T22:59:21.569Z,74.24
2023-05-14T23:01:50.043Z,73.54
2023-05-14T23:04:16.643Z,73.56
2023-05-14T23:06:43.356Z,74.52
2023-05-14T23:09:09.879Z,75.05
2023-05-14T23:11:36.355Z,74.62
2023-05-14T23:14:02.977Z,76.07
2023-05-14T23:16:29.437Z,75.90
2023-05-14T23:18:56.081Z,75.86
2023-05-14T23:21:23.545Z,74.55
2023-05-14T23:23:50.048Z,75.08
2023-05-14T23:26:16.518Z,75.09
2023-05-14T23:28:43.027Z,75.38
2023-05-14T23:31:09.715Z,75.92
2023-05-14T23:33:36.322Z,76.79
2023-05-14T23:36:03.130Z,75.96
2023-05-14T23:38:29.676Z,75.15
2023-05-14T23:40:56.166Z,75.98
2023-05-14T23:43:23.573Z,76.85
2023-05-14T23:45:50.113Z,76.52
2023-05-14T23:48:18.142Z,77.59
2023-05-14T23:50:44.765Z,76.68
2023-05-14T23:53:11.359Z,76.49
2023-05-14T23:55:37.890Z,76.54
2023-05-14T23:58:04.887Z,75.25
